createdAt,value
2022-12-22T00:03:00.108Z,11.60
2022-12-22T00:06:29.630Z,10.80
2022-12-22T00:09:54.193Z,11.20
2022-12-22T00:13:18.845Z,12.00
2022-12-22T00:16:48.217Z,11.50
2022-12-22T00:20:18.257Z,11.80
2022-12-22T00:23:43.209Z,11.90
2022-12-22T00:27:07.942Z,11.40
2022-12-22T00:30:35.555Z,10.60
2022-12-22T00:34:00.240Z,12.30
2022-12-22T00:37:25.217Z,12.80
2022-12-22T00:40:49.489Z,12.40
2022-12-22T00:44:14.014Z,11.60
2022-12-22T00:47:45.747Z,11.10
2022-12-22T00:51:10.740Z,10.70
2022-12-22T00:54:37.278Z,11.00
2022-12-22T00:58:02.010Z,12.50
2022-12-22T01:01:27.339Z,10.40
2022-12-22T01:04:51.623Z,12.20
2022-12-22T01:08:16.025Z,11.70
2022-12-22T01:11:40.247Z,10.60
2022-12-22T01:15:04.630Z,9.60
2022-12-22T01:18:29.315Z,11.70
2022-12-22T01:21:54.662Z,11.10
2022-12-22T01:25:18.631Z,10.60
2022-12-22T01:28:43.036Z,12.70
2022-12-22T01:32:07.257Z,10.10
2022-12-22T01:35:38.046Z,12.80
2022-12-22T01:39:02.393Z,10.10
2022-12-22T01:42:30.705Z,10.00
2022-12-22T01:45:56.351Z,11.20
2022-12-22T01:49:20.764Z,11.30
2022-12-22T01:52:50.540Z,9.90
2022-12-22T01:56:15.647Z,10.30
2022-12-22T01:59:40.400Z,11.80
2022-12-22T02:03:05.094Z,10.80
2022-12-22T02:06:43.558Z,12.10
2022-12-22T02:10:18.343Z,10.30
2022-12-22T02:13:52.738Z,11.70
2022-12-22T02:17:25.907Z,8.90
2022-12-22T02:20:58.795Z,10.60
2022-12-22T02:24:42.201Z,10.60
2022-12-22T02:28:08.113Z,11.00
2022-12-22T02:31:32.766Z,7.90
2022-12-22T02:34:57.501Z,9.20
2022-12-22T02:38:29.459Z,10.40
2022-12-22T02:42:02.173Z,10.60
2022-12-22T02:45:35.544Z,10.80
2022-12-22T02:49:05.783Z,9.60
2022-12-22T02:52:35.929Z,10.10
2022-12-22T02:56:00.123Z,10.80
2022-12-22T02:59:27.431Z,10.70
2022-12-22T03:02:52.023Z,9.70
2022-12-22T03:06:16.500Z,9.80
2022-12-22T03:09:40.933Z,10.60
2022-12-22T03:13:05.024Z,10.30
2022-12-22T03:16:29.516Z,10.40
2022-12-22T03:19:53.998Z,10.00
2022-12-22T03:23:24.524Z,9.70
2022-12-22T03:26:33.474Z,10.60
2022-12-22T03:29:40.156Z,9.00
2022-12-22T03:32:47.343Z,11.10
2022-12-22T03:35:54.119Z,11.30
2022-12-22T03:39:01.223Z,10.60
2022-12-22T03:42:25.583Z,10.30
2022-12-22T03:45:49.969Z,10.00
2022-12-22T03:49:13.223Z,8.80
2022-12-22T03:52:19.846Z,9.70
2022-12-22T03:55:26.496Z,10.40
2022-12-22T03:58:33.180Z,9.90
2022-12-22T04:01:44.875Z,11.00
2022-12-22T04:04:51.855Z,11.00
2022-12-22T04:07:58.607Z,10.30
2022-12-22T04:11:22.987Z,9.50
2022-12-22T04:14:33.947Z,9.60
2022-12-22T04:17:41.284Z,10.90
2022-12-22T04:20:48.046Z,10.90
2022-12-22T04:23:55.010Z,9.60
2022-12-22T04:27:01.894Z,10.70
2022-12-22T04:30:12.246Z,11.50
2022-12-22T04:33:18.953Z,10.60
2022-12-22T04:36:25.864Z,9.20
2022-12-22T04:39:32.583Z,10.30
2022-12-22T04:42:39.209Z,10.40
2022-12-22T04:45:46.451Z,10.50
2022-12-22T04:48:59.583Z,11.70
2022-12-22T04:52:07.594Z,10.40
2022-12-22T04:55:15.551Z,11.00
2022-12-22T04:58:22.672Z,10.90
2022-12-22T05:01:29.673Z,11.30
2022-12-22T05:04:36.577Z,10.90
2022-12-22T05:07:44.167Z,9.00
2022-12-22T05:10:51.007Z,11.10
2022-12-22T05:14:02.162Z,12.00
2022-12-22T05:17:14.075Z,12.30
2022-12-22T05:20:21.679Z,13.00
2022-12-22T05:23:28.442Z,14.30
2022-12-22T05:26:35.366Z,17.20
2022-12-22T05:29:42.082Z,14.50
2022-12-22T05:32:49.434Z,13.30
2022-12-22T05:35:56.601Z,12.40
2022-12-22T05:39:03.310Z,12.60
2022-12-22T05:42:09.985Z,13.70
2022-12-22T05:45:19.087Z,11.60
2022-12-22T05:48:29.700Z,11.30
2022-12-22T05:51:39.014Z,9.90
2022-12-22T05:54:45.854Z,13.10
2022-12-22T05:57:52.700Z,12.70
2022-12-22T06:01:01.308Z,10.20
2022-12-22T06:04:08.528Z,12.30
2022-12-22T06:07:15.581Z,12.60
2022-12-22T06:10:23.320Z,12.40
2022-12-22T06:13:30.206Z,11.40
2022-12-22T06:16:37.338Z,11.40
2022-12-22T06:19:44.227Z,14.40
2022-12-22T06:22:51.156Z,11.60
2022-12-22T06:25:59.955Z,12.00
2022-12-22T06:29:06.630Z,28.00
2022-12-22T06:32:13.308Z,43.80
2022-12-22T06:35:20.218Z,16.00
2022-12-22T06:38:27.319Z,20.90
2022-12-22T06:41:51.700Z,11.20
2022-12-22T06:45:01.752Z,10.40
2022-12-22T06:48:09.327Z,11.20
2022-12-22T06:51:19.006Z,12.30
2022-12-22T06:57:33.534Z,13.00
2022-12-22T07:00:40.329Z,13.60
2022-12-22T07:03:47.383Z,11.40
2022-12-22T07:06:54.091Z,13.10
2022-12-22T07:10:01.022Z,12.10
2022-12-22T07:13:19.670Z,11.30
2022-12-22T07:16:27.214Z,11.80
2022-12-22T07:19:34.660Z,13.60
2022-12-22T07:22:41.391Z,13.40
2022-12-22T07:25:48.450Z,15.10
2022-12-22T07:28:57.708Z,14.20
2022-12-22T07:32:05.193Z,15.60
2022-12-22T07:35:12.630Z,15.00
2022-12-22T07:38:19.311Z,13.90
2022-12-22T07:41:43.344Z,14.10
2022-12-22T07:44:50.509Z,12.70
2022-12-22T07:48:04.735Z,14.80
2022-12-22T07:51:12.997Z,14.40
2022-12-22T07:54:20.159Z,14.50
2022-12-22T07:57:27.146Z,14.60
2022-12-22T08:00:34.175Z,12.70
2022-12-22T08:03:41.516Z,12.40
2022-12-22T08:06:48.608Z,13.00
2022-12-22T08:09:55.378Z,11.80
2022-12-22T08:13:04.726Z,10.80
2022-12-22T08:16:14.248Z,11.10
2022-12-22T08:22:26.967Z,10.90
2022-12-22T08:25:35.455Z,9.80
2022-12-22T08:28:47.572Z,8.40
2022-12-22T08:31:55.529Z,9.60
2022-12-22T08:35:02.281Z,9.60
2022-12-22T08:38:09.675Z,9.30
2022-12-22T08:41:39.692Z,9.90
2022-12-22T08:44:53.315Z,9.00
2022-12-22T08:48:00.244Z,9.80
2022-12-22T08:51:07.352Z,8.60
2022-12-22T08:54:14.961Z,8.80
2022-12-22T08:57:21.849Z,8.70
2022-12-22T09:00:28.907Z,9.70
2022-12-22T09:03:35.902Z,10.30
2022-12-22T09:06:43.027Z,9.00
2022-12-22T09:09:49.897Z,9.40
2022-12-22T09:12:56.669Z,10.30
2022-12-22T09:16:10.501Z,9.30
2022-12-22T09:19:17.513Z,9.70
2022-12-22T09:22:28.095Z,9.30
2022-12-22T09:25:36.904Z,9.00
2022-12-22T09:28:49.912Z,9.20
2022-12-22T09:31:57.624Z,8.60
2022-12-22T09:35:04.694Z,11.40
2022-12-22T09:38:11.692Z,8.60
2022-12-22T09:41:24.314Z,9.50
2022-12-22T09:44:35.948Z,11.00
2022-12-22T09:47:42.830Z,10.60
2022-12-22T09:50:50.168Z,9.60
2022-12-22T09:53:59.076Z,9.80
2022-12-22T09:57:12.803Z,9.00
2022-12-22T10:00:22.900Z,10.30
2022-12-22T10:03:42.186Z,10.00
2022-12-22T10:06:55.886Z,9.80
2022-12-22T10:10:09.884Z,9.70
2022-12-22T10:13:20.274Z,9.60
2022-12-22T10:16:30.073Z,9.90
2022-12-22T10:19:37.009Z,9.10
2022-12-22T10:22:54.352Z,10.40
2022-12-22T10:26:27.969Z,11.30
2022-12-22T10:29:37.265Z,10.90
2022-12-22T10:32:44.398Z,11.10
2022-12-22T10:35:54.508Z,9.10
2022-12-22T10:39:06.800Z,10.20
2022-12-22T10:42:15.880Z,10.60
2022-12-22T10:45:25.391Z,11.40
2022-12-22T10:51:39.451Z,10.50
2022-12-22T10:54:47.596Z,9.40
2022-12-22T10:58:07.455Z,10.40
2022-12-22T11:01:15.025Z,14.20
2022-12-22T11:04:27.036Z,11.50
2022-12-22T11:07:37.024Z,10.20
2022-12-22T11:10:50.649Z,12.10
2022-12-22T11:14:04.900Z,11.00
2022-12-22T11:17:21.052Z,10.30
2022-12-22T11:20:42.836Z,10.60
2022-12-22T11:23:59.740Z,8.80
2022-12-22T11:27:22.719Z,9.20
2022-12-22T11:30:39.091Z,13.10
2022-12-22T11:34:01.402Z,10.40
2022-12-22T11:37:24.460Z,10.90
2022-12-22T11:40:40.732Z,15.30
2022-12-22T11:44:01.809Z,11.80
2022-12-22T11:47:19.894Z,9.00
2022-12-22T11:51:02.326Z,9.70
2022-12-22T11:54:29.379Z,10.10
2022-12-22T11:57:45.355Z,11.20
2022-12-22T12:01:15.355Z,10.50
2022-12-22T12:04:40.730Z,8.90
2022-12-22T12:07:55.346Z,10.50
2022-12-22T12:11:18.409Z,10.70
2022-12-22T12:14:33.334Z,10.30
2022-12-22T12:17:54.247Z,12.70
2022-12-22T12:21:11.792Z,11.40
2022-12-22T12:24:35.723Z,9.90
2022-12-22T12:27:56.596Z,10.80
2022-12-22T12:31:05.061Z,13.50
2022-12-22T12:34:17.298Z,15.10
2022-12-22T12:37:30.512Z,17.20
2022-12-22T12:40:47.984Z,14.60
2022-12-22T12:43:59.805Z,10.60
2022-12-22T12:47:22.304Z,10.20
2022-12-22T12:50:38.492Z,10.00
2022-12-22T12:54:18.771Z,11.20
2022-12-22T12:57:31.304Z,12.90
2022-12-22T13:00:52.536Z,10.40
2022-12-22T13:04:05.301Z,10.20
2022-12-22T13:07:12.782Z,9.80
2022-12-22T13:10:25.652Z,10.10
2022-12-22T13:13:53.702Z,10.00
2022-12-22T13:17:41.176Z,10.80
2022-12-22T13:20:54.696Z,9.80
2022-12-22T13:24:24.275Z,8.80
2022-12-22T13:27:33.274Z,10.50
2022-12-22T13:30:40.425Z,12.30
2022-12-22T13:33:50.318Z,13.60
2022-12-22T13:36:59.846Z,10.40
2022-12-22T13:43:18.873Z,10.70
2022-12-22T13:46:26.450Z,10.80
2022-12-22T13:50:07.064Z,9.20
2022-12-22T13:53:04.692Z,9.30
2022-12-22T13:56:19.820Z,9.30
2022-12-22T13:59:31.422Z,9.60
2022-12-22T14:02:38.245Z,9.90
2022-12-22T14:05:46.511Z,10.70
2022-12-22T14:08:53.225Z,10.10
2022-12-22T14:12:08.678Z,10.00
2022-12-22T14:15:21.059Z,10.90
2022-12-22T14:18:29.205Z,11.70
2022-12-22T14:21:36.500Z,10.50
2022-12-22T14:24:49.555Z,10.70
2022-12-22T14:27:58.021Z,11.30
2022-12-22T14:31:08.617Z,10.60
2022-12-22T14:34:29.423Z,10.50
2022-12-22T14:37:39.258Z,9.60
2022-12-22T14:40:49.781Z,11.50
2022-12-22T14:44:03.564Z,10.80
2022-12-22T14:47:19.701Z,10.30
2022-12-22T14:50:29.154Z,9.30
2022-12-22T14:53:44.984Z,8.50
2022-12-22T14:57:08.464Z,10.50
2022-12-22T15:00:34.215Z,10.60
2022-12-22T15:03:42.648Z,9.90
2022-12-22T15:06:50.585Z,10.60
2022-12-22T15:10:16.851Z,10.40
2022-12-22T15:13:26.457Z,10.70
2022-12-22T15:16:33.948Z,10.20
2022-12-22T15:19:40.756Z,10.80
2022-12-22T15:22:47.451Z,11.00
2022-12-22T15:25:54.531Z,12.60
2022-12-22T15:29:01.253Z,11.10
2022-12-22T15:32:13.011Z,10.60
2022-12-22T15:35:25.519Z,9.70
2022-12-22T15:38:38.470Z,11.00
2022-12-22T15:41:46.287Z,11.30
2022-12-22T15:44:53.574Z,13.40
2022-12-22T15:48:00.500Z,11.10
2022-12-22T15:51:10.355Z,11.00
2022-12-22T15:54:18.336Z,11.00
2022-12-22T15:57:25.099Z,10.60
2022-12-22T16:00:34.938Z,11.40
2022-12-22T16:03:41.967Z,10.30
2022-12-22T16:06:50.532Z,11.40
2022-12-22T16:09:58.983Z,10.60
2022-12-22T16:13:06.636Z,11.80
2022-12-22T16:16:13.818Z,10.40
2022-12-22T16:19:21.323Z,10.00
2022-12-22T16:22:34.189Z,10.30
2022-12-22T16:25:41.717Z,11.80
2022-12-22T16:28:49.115Z,10.80
2022-12-22T16:32:03.236Z,12.10
2022-12-22T16:35:19.479Z,12.10
2022-12-22T16:38:26.348Z,14.00
2022-12-22T16:41:33.039Z,12.10
2022-12-22T16:44:40.293Z,11.80
2022-12-22T16:47:47.289Z,11.60
2022-12-22T16:50:54.156Z,10.60
2022-12-22T16:54:00.885Z,11.20
2022-12-22T16:57:09.500Z,11.80
2022-12-22T17:00:19.337Z,10.80
2022-12-22T17:03:28.387Z,13.00
2022-12-22T17:06:35.895Z,13.20
2022-12-22T17:09:48.511Z,12.30
2022-12-22T17:12:59.968Z,14.40
2022-12-22T17:16:10.646Z,14.50
2022-12-22T17:19:17.556Z,10.10
2022-12-22T17:22:28.987Z,13.10
2022-12-22T17:25:35.853Z,14.40
2022-12-22T17:28:42.940Z,15.20
2022-12-22T17:31:51.053Z,16.30
2022-12-22T17:34:57.870Z,13.90
2022-12-22T17:38:04.816Z,14.20
2022-12-22T17:41:15.578Z,14.10
2022-12-22T17:44:24.908Z,13.80
2022-12-22T17:47:40.464Z,14.20
2022-12-22T17:50:52.069Z,10.00
2022-12-22T17:53:59.774Z,14.00
2022-12-22T17:57:07.783Z,13.70
2022-12-22T18:00:20.024Z,13.10
2022-12-22T18:03:26.938Z,12.90
2022-12-22T18:06:36.585Z,13.90
2022-12-22T18:12:49.295Z,14.10
2022-12-22T18:15:56.427Z,13.40
2022-12-22T18:19:03.970Z,13.70
2022-12-22T18:22:18.147Z,10.10
2022-12-22T18:25:27.700Z,13.60
2022-12-22T18:28:34.514Z,12.60
2022-12-22T18:31:41.853Z,16.60
2022-12-22T18:34:48.629Z,14.40
2022-12-22T18:37:56.082Z,14.40
2022-12-22T18:41:05.951Z,15.00
2022-12-22T18:44:16.257Z,14.50
2022-12-22T18:47:23.067Z,13.30
2022-12-22T18:50:31.071Z,13.80
2022-12-22T18:53:40.609Z,12.60
2022-12-22T18:56:49.303Z,11.80
2022-12-22T18:59:56.118Z,13.00
2022-12-22T19:03:04.426Z,13.60
2022-12-22T19:06:13.129Z,13.10
2022-12-22T19:09:20.007Z,11.40
2022-12-22T19:12:29.039Z,12.40
2022-12-22T19:15:38.510Z,12.40
2022-12-22T19:21:50.622Z,10.30
2022-12-22T19:24:59.043Z,10.20
2022-12-22T19:28:13.139Z,10.00
2022-12-22T19:31:27.739Z,6.90
2022-12-22T19:34:34.690Z,10.80
2022-12-22T19:37:43.917Z,11.10
2022-12-22T19:40:51.972Z,11.60
2022-12-22T19:43:59.140Z,9.20
2022-12-22T19:47:17.135Z,9.60
2022-12-22T19:50:28.166Z,7.60
2022-12-22T19:53:37.898Z,7.80
2022-12-22T19:56:46.886Z,10.70
2022-12-22T19:59:55.441Z,8.30
2022-12-22T20:03:06.235Z,10.10
2022-12-22T20:06:13.389Z,6.50
2022-12-22T20:09:20.379Z,11.00
2022-12-22T20:12:31.189Z,8.50
2022-12-22T20:15:39.727Z,10.00
2022-12-22T20:18:47.820Z,7.90
2022-12-22T20:21:54.995Z,11.30
2022-12-22T20:25:01.777Z,8.00
2022-12-22T20:28:15.636Z,6.60
2022-12-22T20:31:24.474Z,8.80
2022-12-22T20:34:31.691Z,8.00
2022-12-22T20:37:38.835Z,6.50
2022-12-22T20:40:45.868Z,9.40
2022-12-22T20:43:53.591Z,7.60
2022-12-22T20:47:01.165Z,9.20
2022-12-22T20:50:18.979Z,13.50
2022-12-22T20:53:25.834Z,12.20
2022-12-22T20:56:36.125Z,9.10
2022-12-22T20:59:44.522Z,8.50
2022-12-22T21:02:52.212Z,10.00
2022-12-22T21:05:59.250Z,8.60
2022-12-22T21:09:06.911Z,9.50
2022-12-22T21:12:13.840Z,9.70
2022-12-22T21:15:23.290Z,6.50
2022-12-22T21:21:35.564Z,9.50
2022-12-22T21:24:43.877Z,7.10
2022-12-22T21:27:53.284Z,7.60
2022-12-22T21:31:00.409Z,6.90
2022-12-22T21:34:07.377Z,9.50
2022-12-22T21:37:19.964Z,9.00
2022-12-22T21:40:28.851Z,6.60
2022-12-22T21:43:35.541Z,9.10
2022-12-22T21:46:43.048Z,8.40
2022-12-22T21:49:49.941Z,9.30
2022-12-22T21:52:57.188Z,8.30
2022-12-22T21:56:03.902Z,8.50
2022-12-22T21:59:10.990Z,8.60
2022-12-22T22:02:19.575Z,9.10
2022-12-22T22:05:29.716Z,8.30
2022-12-22T22:08:36.443Z,8.10
2022-12-22T22:12:01.173Z,7.80
2022-12-22T22:15:09.341Z,9.40
2022-12-22T22:18:20.267Z,8.60
2022-12-22T22:21:27.072Z,7.70
2022-12-22T22:24:34.084Z,8.00
2022-12-22T22:27:47.369Z,7.20
2022-12-22T22:30:54.770Z,5.10
2022-12-22T22:34:01.399Z,8.60
2022-12-22T22:37:08.205Z,9.30
2022-12-22T22:40:16.503Z,12.10
2022-12-22T22:43:23.279Z,5.50
2022-12-22T22:46:30.252Z,9.30
2022-12-22T22:49:36.938Z,9.20
2022-12-22T22:52:43.635Z,6.10
2022-12-22T22:55:50.419Z,10.00
2022-12-22T22:58:59.566Z,6.90
2022-12-22T23:02:06.570Z,9.50
2022-12-22T23:05:18.737Z,10.50
2022-12-22T23:08:30.649Z,9.20
2022-12-22T23:11:37.242Z,10.60
2022-12-22T23:14:44.018Z,9.20
2022-12-22T23:17:51.383Z,8.90
2022-12-22T23:20:59.602Z,7.70
2022-12-22T23:24:07.491Z,8.80
2022-12-22T23:27:14.203Z,8.60
2022-12-22T23:30:21.079Z,8.90
2022-12-22T23:33:27.857Z,7.20
2022-12-22T23:36:34.625Z,8.00
2022-12-22T23:39:41.344Z,8.00
2022-12-22T23:42:51.774Z,8.60
2022-12-22T23:46:06.036Z,7.80
2022-12-22T23:52:18.585Z,9.30
2022-12-22T23:55:25.690Z,8.50
2022-12-22T23:58:32.707Z,8.20
